Time;durP1;ratioP1;P1;durP2;ratioP2;P2;SDS_P1;SDS_P2;PMS_P1;PMS_P2;Temp;Humidity;BMP_temperature;BMP_pressure;BME280_temperature;BME280_humidity;BME280_pressure;Samples;Min_cycle;Max_cycle;Signal;HPM_P1;HPM_P2
2022/10/07 00:01:16;;;;;;;0.10;0.10;;;;;;;;;;4950866;28;20215;-71
2022/10/07 00:03:43;;;;;;;0.10;0.10;;;;;;;;;;4959171;28;20186;-71
2022/10/07 00:06:13;;;;;;;0.10;0.10;;;;;;;;;;4970482;28;20202;-71
2022/10/07 00:08:43;;;;;;;0.00;0.00;;;;;;;;;;4956785;28;20198;-71
2022/10/07 00:11:11;;;;;;;0.00;0.00;;;;;;;;;;4954204;28;20302;-71
2022/10/07 00:13:39;;;;;;;0.10;0.10;;;;;;;;;;4970726;28;20222;-71
2022/10/07 00:16:07;;;;;;;0.10;0.10;;;;;;;;;;4955229;28;20605;-71
2022/10/07 00:18:35;;;;;;;0.10;0.10;;;;;;;;;;4969950;28;20214;-71
2022/10/07 00:21:05;;;;;;;0.10;0.10;;;;;;;;;;4954027;28;20210;-71
2022/10/07 00:23:33;;;;;;;0.10;0.10;;;;;;;;;;4954526;28;20217;-71
2022/10/07 00:26:03;;;;;;;0.10;0.10;;;;;;;;;;4961373;28;20229;-71
2022/10/07 00:28:30;;;;;;;0.10;0.10;;;;;;;;;;4970327;28;20232;-71
2022/10/07 00:30:58;;;;;;;0.00;0.00;;;;;;;;;;4956500;28;20209;-71
2022/10/07 00:33:25;;;;;;;0.10;0.10;;;;;;;;;;4971037;28;20289;-71
2022/10/07 00:35:53;;;;;;;0.10;0.10;;;;;;;;;;4955382;28;20658;-71
2022/10/07 00:38:20;;;;;;;0.10;0.10;;;;;;;;;;4953489;28;20230;-71
2022/10/07 00:40:48;;;;;;;0.10;0.10;;;;;;;;;;4971837;28;20622;-71
2022/10/07 00:43:22;;;;;;;0.10;0.10;;;;;;;;;;4966566;28;20285;-71
2022/10/07 00:45:49;;;;;;;0.10;0.10;;;;;;;;;;4952800;28;20629;-71
2022/10/07 00:48:21;;;;;;;0.10;0.10;;;;;;;;;;4951538;28;20222;-71
2022/10/07 00:50:49;;;;;;;0.10;0.10;;;;;;;;;;4955778;28;20628;-71
2022/10/07 00:53:17;;;;;;;0.10;0.10;;;;;;;;;;4969955;28;20249;-71
2022/10/07 00:55:44;;;;;;;0.10;0.10;;;;;;;;;;4955919;28;20302;-71
2022/10/07 00:58:13;;;;;;;0.10;0.10;;;;;;;;;;4952624;28;20219;-71
2022/10/07 01:00:42;;;;;;;0.10;0.10;;;;;;;;;;4954916;28;20696;-71
2022/10/07 01:03:11;;;;;;;0.10;0.10;;;;;;;;;;4968236;28;20653;-71
2022/10/07 01:05:39;;;;;;;0.10;0.10;;;;;;;;;;4971022;28;20651;-71
2022/10/07 01:08:06;;;;;;;0.10;0.10;;;;;;;;;;4970247;28;20779;-71
2022/10/07 01:10:39;;;;;;;0.10;0.10;;;;;;;;;;4969337;28;20214;-71
2022/10/07 01:13:14;;;;;;;0.10;0.10;;;;;;;;;;4968551;28;20256;-71
2022/10/07 01:15:46;;;;;;;0.10;0.10;;;;;;;;;;4952656;28;20202;-71
2022/10/07 01:18:17;;;;;;;0.10;0.10;;;;;;;;;;4969649;28;20232;-71
2022/10/07 01:20:47;;;;;;;0.10;0.10;;;;;;;;;;4968473;28;20740;-71
2022/10/07 01:23:26;;;;;;;0.10;0.10;;;;;;;;;;4953581;28;20195;-71
2022/10/07 01:26:00;;;;;;;0.10;0.10;;;;;;;;;;4969405;28;20743;-71
2022/10/07 01:28:31;;;;;;;0.10;0.10;;;;;;;;;;4971409;28;21225;-71
2022/10/07 01:31:03;;;;;;;0.10;0.10;;;;;;;;;;4968895;28;20623;-71
2022/10/07 01:33:33;;;;;;;0.10;0.10;;;;;;;;;;4966979;28;20664;-71
2022/10/07 01:36:03;;;;;;;0.10;0.10;;;;;;;;;;4954104;28;20638;-72
2022/10/07 01:38:32;;;;;;;0.10;0.10;;;;;;;;;;4953061;28;20772;-71
2022/10/07 01:41:03;;;;;;;0.10;0.10;;;;;;;;;;4969110;28;20645;-71
2022/10/07 01:43:33;;;;;;;0.10;0.10;;;;;;;;;;4968922;28;20628;-72
2022/10/07 01:46:01;;;;;;;0.10;0.10;;;;;;;;;;4954602;28;20618;-72
2022/10/07 01:48:31;;;;;;;0.10;0.10;;;;;;;;;;4954497;28;20644;-72
2022/10/07 01:51:00;;;;;;;0.10;0.10;;;;;;;;;;4950108;28;20634;-72
2022/10/07 01:53:36;;;;;;;0.10;0.10;;;;;;;;;;4951483;28;20654;-71
2022/10/07 01:56:12;;;;;;;0.10;0.10;;;;;;;;;;4966886;28;20629;-72
2022/10/07 01:58:53;;;;;;;0.10;0.10;;;;;;;;;;4969442;28;20625;-71
2022/10/07 02:01:23;;;;;;;0.10;0.10;;;;;;;;;;4968867;28;20629;-71
2022/10/07 02:03:59;;;;;;;0.10;0.10;;;;;;;;;;4969722;28;20732;-72
2022/10/07 02:06:31;;;;;;;0.10;0.10;;;;;;;;;;4968183;28;20645;-72
2022/10/07 02:09:03;;;;;;;0.10;0.10;;;;;;;;;;4955856;28;20762;-72
2022/10/07 02:11:34;;;;;;;0.10;0.10;;;;;;;;;;4970316;28;20224;-72
2022/10/07 02:14:11;;;;;;;0.10;0.10;;;;;;;;;;4953115;28;20753;-72
2022/10/07 02:16:41;;;;;;;0.10;0.10;;;;;;;;;;4950280;28;20652;-72
2022/10/07 02:19:11;;;;;;;0.10;0.10;;;;;;;;;;4966243;28;20645;-72
2022/10/07 02:21:39;;;;;;;0.10;0.10;;;;;;;;;;4956457;28;20633;-72
2022/10/07 02:24:08;;;;;;;0.10;0.10;;;;;;;;;;4956662;28;20684;-72
2022/10/07 02:26:36;;;;;;;0.10;0.10;;;;;;;;;;4957763;28;20680;-72
2022/10/07 02:29:07;;;;;;;0.10;0.10;;;;;;;;;;4957406;28;21206;-72
2022/10/07 02:31:39;;;;;;;0.10;0.10;;;;;;;;;;4970819;28;20626;-72
2022/10/07 02:34:08;;;;;;;0.10;0.10;;;;;;;;;;4955356;28;20662;-72
2022/10/07 02:36:37;;;;;;;0.10;0.10;;;;;;;;;;4953176;28;20756;-72
2022/10/07 02:39:06;;;;;;;0.10;0.10;;;;;;;;;;4968507;28;20635;-72
2022/10/07 02:41:40;;;;;;;0.10;0.10;;;;;;;;;;4952118;28;20627;-72
2022/10/07 02:44:18;;;;;;;0.10;0.10;;;;;;;;;;4967275;28;20622;-72
2022/10/07 02:46:49;;;;;;;0.10;0.10;;;;;;;;;;4958713;28;20666;-72
2022/10/07 02:49:18;;;;;;;0.10;0.10;;;;;;;;;;4967790;28;20638;-72
2022/10/07 02:51:47;;;;;;;0.10;0.10;;;;;;;;;;4969664;28;20633;-71
2022/10/07 02:54:16;;;;;;;0.10;0.10;;;;;;;;;;4953299;28;20672;-71
2022/10/07 02:56:44;;;;;;;0.10;0.10;;;;;;;;;;4954887;28;20653;-71
2022/10/07 02:59:13;;;;;;;0.10;0.10;;;;;;;;;;4952861;28;20613;-71
2022/10/07 03:01:44;;;;;;;0.10;0.10;;;;;;;;;;4951058;28;20629;-72
2022/10/07 03:04:13;;;;;;;0.00;0.00;;;;;;;;;;4964440;28;20617;-71
2022/10/07 03:06:41;;;;;;;0.10;0.10;;;;;;;;;;4949205;28;20661;-72
2022/10/07 03:09:09;;;;;;;0.10;0.10;;;;;;;;;;4966110;28;20640;-72
2022/10/07 03:11:38;;;;;;;0.10;0.10;;;;;;;;;;4959751;28;20628;-71
2022/10/07 03:14:06;;;;;;;0.10;0.10;;;;;;;;;;4950989;28;20657;-72
2022/10/07 03:16:33;;;;;;;0.10;0.10;;;;;;;;;;4958738;28;20650;-72
2022/10/07 03:19:00;;;;;;;0.00;0.00;;;;;;;;;;4968024;28;20701;-71
2022/10/07 03:21:43;;;;;;;0.10;0.10;;;;;;;;;;4953196;28;20626;-72
2022/10/07 03:24:11;;;;;;;0.10;0.10;;;;;;;;;;4954690;28;20624;-72
2022/10/07 03:26:44;;;;;;;0.10;0.10;;;;;;;;;;4950735;28;20668;-72
2022/10/07 03:29:13;;;;;;;0.10;0.10;;;;;;;;;;4970741;28;21134;-72
2022/10/07 03:31:42;;;;;;;0.10;0.10;;;;;;;;;;4969391;28;20627;-71
2022/10/07 03:34:09;;;;;;;0.10;0.10;;;;;;;;;;4950903;28;20650;-72
2022/10/07 03:36:39;;;;;;;0.10;0.10;;;;;;;;;;4951212;28;20704;-72
2022/10/07 03:39:09;;;;;;;0.10;0.10;;;;;;;;;;4968520;28;20988;-72
2022/10/07 03:41:37;;;;;;;0.10;0.10;;;;;;;;;;4956396;28;20679;-72
2022/10/07 03:44:05;;;;;;;0.10;0.10;;;;;;;;;;4969485;28;20709;-72
2022/10/07 03:46:34;;;;;;;0.10;0.10;;;;;;;;;;4955979;28;21339;-72
2022/10/07 03:49:02;;;;;;;0.10;0.10;;;;;;;;;;4952732;28;20728;-72
2022/10/07 03:51:29;;;;;;;0.10;0.10;;;;;;;;;;4971062;28;20620;-72
2022/10/07 03:53:58;;;;;;;0.10;0.10;;;;;;;;;;4962508;28;20658;-71
2022/10/07 03:56:30;;;;;;;0.10;0.10;;;;;;;;;;4970724;28;20756;-72
2022/10/07 03:58:58;;;;;;;0.10;0.10;;;;;;;;;;4961239;28;20649;-72
2022/10/07 04:01:27;;;;;;;0.10;0.10;;;;;;;;;;4969240;28;20625;-71
2022/10/07 04:03:59;;;;;;;0.10;0.10;;;;;;;;;;4970670;28;20629;-71
2022/10/07 04:06:27;;;;;;;0.10;0.10;;;;;;;;;;4971620;28;20644;-72
2022/10/07 04:08:55;;;;;;;0.10;0.10;;;9.70;99.90;;;;;;4954121;28;20613;-72
2022/10/07 04:11:23;;;;;;;0.10;0.10;;;7.80;99.90;;;;;;4966832;28;20632;-72
2022/10/07 04:13:55;;;;;;;0.10;0.10;;;7.70;99.90;;;;;;4959996;28;20725;-72
2022/10/07 04:16:24;;;;;;;0.10;0.10;;;7.70;99.90;;;;;;4950807;28;20633;-72
2022/10/07 04:18:55;;;;;;;0.10;0.10;;;7.70;99.90;;;;;;4954096;28;20626;-71
2022/10/07 04:21:22;;;;;;;0.10;0.10;;;7.60;99.90;;;;;;4961962;28;21067;-72
2022/10/07 04:23:50;;;;;;;0.10;0.10;;;7.60;99.90;;;;;;4969569;28;20695;-72
2022/10/07 04:26:17;;;;;;;0.10;0.10;;;7.60;99.90;;;;;;4955219;28;20869;-71
2022/10/07 04:28:47;;;;;;;0.10;0.10;;;7.60;99.90;;;;;;4969882;28;20629;-72
2022/10/07 04:31:22;;;;;;;0.10;0.10;;;7.50;99.90;;;;;;4954737;28;20768;-72
2022/10/07 04:34:08;;;;;;;0.10;0.10;;;7.50;99.90;;;;;;4951264;28;20654;-71
2022/10/07 04:36:39;;;;;;;0.10;0.10;;;7.40;99.90;;;;;;4955528;28;20691;-72
2022/10/07 04:39:09;;;;;;;0.10;0.10;;;7.40;99.90;;;;;;4952334;28;20673;-72
2022/10/07 04:41:42;;;;;;;0.10;0.10;;;7.40;99.90;;;;;;4971976;28;20622;-72
2022/10/07 04:44:14;;;;;;;0.10;0.10;;;7.40;99.90;;;;;;4953202;28;20701;-72
2022/10/07 04:46:52;;;;;;;0.10;0.10;;;7.30;99.90;;;;;;4955357;28;20656;-71
2022/10/07 04:49:21;;;;;;;0.10;0.10;;;;;;;;;;4969480;28;20716;-71
2022/10/07 04:51:48;;;;;;;0.10;0.10;;;;;;;;;;4955073;28;20644;-71
2022/10/07 04:54:16;;;;;;;0.10;0.10;;;;;;;;;;4955319;28;20653;-71
2022/10/07 04:56:49;;;;;;;0.10;0.10;;;;;;;;;;4969476;28;20760;-71
2022/10/07 04:59:19;;;;;;;0.10;0.10;;;;;;;;;;4968472;28;20622;-71
2022/10/07 05:01:46;;;;;;;0.10;0.10;;;;;;;;;;4955540;28;20625;-71
2022/10/07 05:04:15;;;;;;;0.10;0.10;;;;;;;;;;4954835;28;20661;-71
2022/10/07 05:06:43;;;;;;;0.10;0.10;;;;;;;;;;4952394;28;20650;-71
2022/10/07 05:09:12;;;;;;;0.10;0.10;;;;;;;;;;4972688;28;21181;-71
2022/10/07 05:11:43;;;;;;;0.10;0.10;;;;;;;;;;4968495;28;20629;-71
2022/10/07 05:14:20;;;;;;;0.10;0.10;;;;;;;;;;4970661;28;20649;-71
2022/10/07 05:16:48;;;;;;;0.17;0.17;;;;;;;;;;4965807;28;20657;-71
2022/10/07 05:19:18;;;;;;;0.10;0.10;;;;;;;;;;4959485;28;20656;-71
2022/10/07 05:21:45;;;;;;;0.10;0.10;;;;;;;;;;4951503;28;20657;-70
2022/10/07 05:24:14;;;;;;;0.10;0.10;;;;;;;;;;4959979;28;20622;-70
2022/10/07 05:26:42;;;;;;;0.10;0.10;;;;;;;;;;4950226;28;20736;-70
2022/10/07 05:29:10;;;;;;;0.10;0.10;;;;;;;;;;4950113;28;21014;-71
2022/10/07 05:31:42;;;;;;;0.17;0.17;;;;;;;;;;4962204;28;20633;-71
2022/10/07 05:34:11;;;;;;;0.10;0.10;;;;;;;;;;4968576;28;20676;-71
2022/10/07 05:36:40;;;;;;;0.10;0.10;;;;;;;;;;4950861;28;20704;-71
2022/10/07 05:39:08;;;;;;;0.10;0.10;;;;;;;;;;4951973;28;20839;-71
2022/10/07 05:41:45;;;;;;;0.10;0.10;;;;;;;;;;4966798;28;20641;-71
2022/10/07 05:44:16;;;;;;;0.10;0.10;;;;;;;;;;4968019;28;21223;-71
2022/10/07 05:46:44;;;;;;;0.10;0.10;;;;;;;;;;4950089;28;20761;-71
2022/10/07 05:49:13;;;;;;;0.10;0.10;;;;;;;;;;4950951;28;20729;-71
2022/10/07 05:51:42;;;;;;;0.10;0.10;;;;;;;;;;4968571;28;20637;-71
2022/10/07 05:54:10;;;;;;;0.10;0.10;;;;;;;;;;4967279;28;20646;-71
2022/10/07 05:56:41;;;;;;;0.10;0.10;;;;;;;;;;4967784;28;20648;-71
2022/10/07 05:59:10;;;;;;;0.10;0.10;;;;;;;;;;4966907;28;20681;-71
2022/10/07 06:01:39;;;;;;;0.10;0.10;;;;;;;;;;4968237;28;20628;-71
2022/10/07 06:04:12;;;;;;;0.10;0.10;;;;;;;;;;4966986;28;20704;-71
2022/10/07 06:06:44;;;;;;;0.10;0.10;;;;;;;;;;4950912;28;20654;-71
2022/10/07 06:14:50;;;;;;;0.00;0.00;;;;;;;;;;4967190;28;20663;-71
2022/10/07 06:17:17;;;;;;;0.10;0.10;;;;;;;;;;4953166;28;20737;-71
2022/10/07 06:19:46;;;;;;;0.10;0.10;;;;;;;;;;4959317;28;20626;-71
2022/10/07 06:22:17;;;;;;;0.10;0.10;;;;;;;;;;4969505;28;20625;-71
2022/10/07 06:24:46;;;;;;;0.10;0.10;;;;;;;;;;4955632;28;20696;-71
2022/10/07 06:27:16;;;;;;;0.10;0.10;;;;;;;;;;4971002;28;20654;-71
2022/10/07 06:29:44;;;;;;;0.10;0.10;;;;;;;;;;4955126;28;20733;-71
2022/10/07 06:32:12;;;;;;;0.10;0.10;;;;;;;;;;4956553;28;20632;-71
2022/10/07 06:34:43;;;;;;;0.10;0.10;;;;;;;;;;4952384;28;20654;-71
2022/10/07 06:37:13;;;;;;;0.10;0.10;;;;;;;;;;4970266;28;20645;-71
2022/10/07 06:39:41;;;;;;;0.10;0.10;;;;;;;;;;4953197;28;20629;-71
2022/10/07 06:42:10;;;;;;;0.10;0.10;;;;;;;;;;4971196;28;20634;-71
2022/10/07 06:44:58;;;;;;;0.10;0.10;;;;;;;;;;4953272;28;20709;-71
2022/10/07 06:47:26;;;;;;;0.10;0.10;;;;;;;;;;4959518;28;20661;-71
2022/10/07 06:49:53;;;;;;;0.10;0.10;;;;;;;;;;4970456;28;20621;-71
2022/10/07 06:52:21;;;;;;;0.10;0.10;;;;;;;;;;4951446;28;20663;-71
2022/10/07 06:54:50;;;;;;;0.10;0.10;;;;;;;;;;4952635;28;20756;-71
2022/10/07 06:57:19;;;;;;;0.10;0.10;;;;;;;;;;4964966;28;20699;-71
2022/10/07 06:59:46;;;;;;;0.10;0.10;;;;;;;;;;4971370;28;20641;-71
2022/10/07 07:02:16;;;;;;;0.10;0.10;;;;;;;;;;4949254;28;20618;-71
2022/10/07 07:04:44;;;;;;;0.10;0.10;;;;;;;;;;4969357;28;21328;-71
2022/10/07 07:07:11;;;;;;;0.10;0.10;;;;;;;;;;4967290;28;20653;-71
2022/10/07 07:09:40;;;;;;;0.10;0.10;;;;;;;;;;4967169;28;20646;-71
2022/10/07 07:12:10;;;;;;;0.10;0.10;;;;;;;;;;4952238;28;20642;-71
2022/10/07 07:14:41;;;;;;;0.10;0.10;;;;;;;;;;4969851;28;20661;-71
2022/10/07 07:17:14;;;;;;;0.10;0.10;;;;;;;;;;4973971;28;20658;-71
2022/10/07 07:19:42;;;;;;;0.10;0.10;;;;;;;;;;4969595;28;20630;-71
2022/10/07 07:22:09;;;;;;;0.10;0.10;;;;;;;;;;4957491;28;20738;-71
2022/10/07 07:24:38;;;;;;;0.10;0.10;;;;;;;;;;4963420;28;20636;-71
2022/10/07 07:27:06;;;;;;;0.10;0.10;;;;;;;;;;4969910;28;20733;-71
2022/10/07 07:29:35;;;;;;;0.10;0.10;;;;;;;;;;4954659;28;20740;-72
2022/10/07 07:32:03;;;;;;;0.10;0.10;;;;;;;;;;4959071;28;20620;-71
2022/10/07 07:34:35;;;;;;;0.10;0.10;;;;;;;;;;4954457;28;20668;-72
2022/10/07 07:37:03;;;;;;;0.10;0.10;;;;;;;;;;4971717;28;20751;-71
2022/10/07 07:39:36;;;;;;;0.10;0.10;;;;;;;;;;4955454;28;20629;-71
2022/10/07 07:42:09;;;;;;;0.10;0.10;;;;;;;;;;4970419;28;21290;-72
2022/10/07 07:44:39;;;;;;;0.10;0.10;;;;;;;;;;4953236;28;20198;-72
2022/10/07 07:47:09;;;;;;;0.00;0.00;;;7.30;99.90;;;;;;4968774;28;20222;-72
2022/10/07 07:49:37;;;;;;;0.10;0.10;;;;;;;;;;4970882;28;20233;-72
2022/10/07 07:52:08;;;;;;;0.10;0.10;;;;;;;;;;4971169;28;20293;-72
2022/10/07 07:54:41;;;;;;;0.10;0.10;;;;;;;;;;4957630;28;20317;-72
2022/10/07 07:57:09;;;;;;;0.10;0.10;;;;;;;;;;4968427;28;20225;-72
2022/10/07 07:59:38;;;;;;;0.10;0.10;;;;;;;;;;4954467;28;20213;-72
2022/10/07 08:02:07;;;;;;;0.10;0.10;;;;;;;;;;4972406;28;20206;-72
2022/10/07 08:04:37;;;;;;;0.10;0.10;;;;;;;;;;4971241;28;20284;-72
2022/10/07 08:07:05;;;;;;;0.10;0.10;;;;;;;;;;4955908;28;20240;-72
2022/10/07 08:09:33;;;;;;;0.10;0.10;;;;;;;;;;4953345;28;20222;-72
2022/10/07 08:12:01;;;;;;;0.10;0.10;;;;;;;;;;4957641;28;20316;-72
2022/10/07 08:14:27;;;;;;;0.10;0.10;;;14.40;99.90;;;;;;4951709;28;20218;-72
2022/10/07 08:16:58;;;;;;;0.10;0.10;;;14.40;99.90;;;;;;4962484;28;20214;-72
2022/10/07 08:19:28;;;;;;;0.10;0.10;;;14.60;99.90;;;;;;4969620;28;20213;-72
2022/10/07 08:21:56;;;;;;;0.10;0.10;;;14.90;99.90;;;;;;4955785;28;20207;-72
2022/10/07 08:24:26;;;;;;;0.10;0.10;;;;;;;;;;4970014;28;20194;-72
2022/10/07 08:26:54;;;;;;;0.00;0.00;;;;;;;;;;4951878;28;20233;-72
2022/10/07 08:29:23;;;;;;;0.00;0.00;;;;;;;;;;4952142;28;20309;-73
2022/10/07 08:31:50;;;;;;;0.10;0.10;;;;;;;;;;4971002;28;20215;-72
2022/10/07 08:34:19;;;;;;;0.10;0.10;;;;;;;;;;4953305;28;20282;-73
2022/10/07 08:36:49;;;;;;;0.10;0.10;;;;;;;;;;4955554;28;20226;-75
2022/10/07 08:39:17;;;;;;;0.10;0.10;;;;;;;;;;4956445;28;20207;-73
2022/10/07 08:41:56;;;;;;;0.10;0.10;;;;;;;;;;4974885;28;20269;-73
2022/10/07 08:44:26;;;;;;;0.10;0.10;;;;;;;;;;4954578;28;20671;-73
2022/10/07 08:47:01;;;;;;;0.10;0.10;;;15.10;99.90;;;;;;4972654;28;20303;-73
2022/10/07 08:49:34;;;;;;;0.00;0.00;;;;;;;;;;4957885;28;20202;-73
2022/10/07 08:52:04;;;;;;;0.00;0.00;;;;;;;;;;4968339;28;20222;-73
2022/10/07 08:54:32;;;;;;;0.00;0.00;;;;;;;;;;4954934;28;20250;-73
2022/10/07 08:57:03;;;;;;;0.10;0.10;;;;;;;;;;4949475;28;20218;-73
2022/10/07 08:59:32;;;;;;;0.00;0.00;;;;;;;;;;4953372;28;20230;-72
2022/10/07 09:02:06;;;;;;;0.00;0.00;;;;;;;;;;4962575;28;20194;-73
2022/10/07 09:04:41;;;;;;;0.10;0.10;;;;;;;;;;4974087;28;20203;-72
2022/10/07 09:07:10;;;;;;;0.00;0.00;;;;;;;;;;4967669;28;20711;-72
2022/10/07 09:09:40;;;;;;;0.00;0.00;;;;;;;;;;4956787;28;20342;-72
2022/10/07 09:12:11;;;;;;;0.10;0.10;;;;;;;;;;4968301;28;20199;-73
2022/10/07 09:14:39;;;;;;;0.00;0.00;;;;;;;;;;4970143;28;20206;-72
2022/10/07 09:17:11;;;;;;;0.00;0.00;;;;;;;;;;4949912;28;20229;-72
2022/10/07 09:19:43;;;;;;;0.00;0.00;;;;;;;;;;4969034;28;20671;-73
2022/10/07 09:22:13;;;;;;;0.00;0.00;;;;;;;;;;4966906;28;20214;-72
2022/10/07 09:24:41;;;;;;;0.00;0.00;;;;;;;;;;4970738;28;20206;-72
2022/10/07 09:27:14;;;;;;;0.00;0.00;;;;;;;;;;4954728;28;20276;-72
2022/10/07 09:29:41;;;;;;;0.00;0.00;;;;;;;;;;4970401;28;20210;-73
2022/10/07 09:32:10;;;;;;;0.00;0.00;;;;;;;;;;4966053;28;20222;-73
2022/10/07 09:34:37;;;;;;;0.00;0.00;;;;;;;;;;4967630;28;20238;-73
2022/10/07 09:37:15;;;;;;;0.00;0.00;;;;;;;;;;4953058;28;20291;-72
2022/10/07 09:39:43;;;;;;;0.00;0.00;;;;;;;;;;4971381;28;20205;-73
2022/10/07 09:42:36;;;;;;;0.00;0.00;;;;;;;;;;4955455;28;20207;-73
2022/10/07 09:45:06;;;;;;;0.00;0.00;;;;;;;;;;4964828;28;20198;-74
2022/10/07 09:47:39;;;;;;;0.00;0.00;;;;;;;;;;4956406;28;20250;-72
2022/10/07 09:50:27;;;;;;;0.00;0.00;;;;;;;;;;4953993;28;20230;-72
2022/10/07 09:52:56;;;;;;;0.00;0.00;;;;;;;;;;4960303;28;20329;-74
2022/10/07 09:55:33;;;;;;;0.00;0.00;;;;;;;;;;4969704;28;20222;-72
2022/10/07 09:58:01;;;;;;;0.00;0.00;;;;;;;;;;4968829;28;20222;-72
2022/10/07 10:00:29;;;;;;;0.00;0.00;;;;;;;;;;4952860;28;20215;-72
2022/10/07 10:03:01;;;;;;;0.00;0.00;;;;;;;;;;4956518;28;20213;-73
2022/10/07 10:05:33;;;;;;;0.00;0.00;;;;;;;;;;4967507;28;20289;-72
2022/10/07 10:08:04;;;;;;;0.00;0.00;;;;;;;;;;4952250;28;20234;-73
2022/10/07 10:10:33;;;;;;;0.00;0.00;;;;;;;;;;4951151;28;20249;-72
2022/10/07 10:13:14;;;;;;;0.00;0.00;;;;;;;;;;4958876;28;20306;-72
2022/10/07 10:15:43;;;;;;;0.00;0.00;;;;;;;;;;4970825;28;20226;-73
2022/10/07 10:18:28;;;;;;;0.00;0.00;;;;;;;;;;4969620;28;20230;-72
2022/10/07 10:20:55;;;;;;;0.00;0.00;;;;;;;;;;4948666;28;20303;-73
2022/10/07 10:23:27;;;;;;;0.00;0.00;;;;;;;;;;4955667;28;20206;-74
2022/10/07 10:28:47;;;;;;;0.00;0.00;;;;;;;;;;4953532;28;20191;-73
2022/10/07 10:31:19;;;;;;;0.00;0.00;;;;;;;;;;4967325;28;20281;-73
2022/10/07 10:33:50;;;;;;;0.00;0.00;;;;;;;;;;4954319;28;20194;-73
2022/10/07 10:36:20;;;;;;;0.00;0.00;;;;;;;;;;4969308;28;20219;-73
2022/10/07 10:38:51;;;;;;;0.00;0.00;;;;;;;;;;4954136;28;20257;-73
2022/10/07 10:41:25;;;;;;;0.00;0.00;;;;;;;;;;4956287;28;20205;-72
2022/10/07 10:44:18;;;;;;;0.00;0.00;;;;;;;;;;4971044;28;20221;-72
2022/10/07 10:46:49;;;;;;;0.00;0.00;;;;;;;;;;4955443;28;20248;-72
2022/10/07 10:49:24;;;;;;;0.00;0.00;;;;;;;;;;4953676;28;20197;-72
2022/10/07 10:52:03;;;;;;;0.00;0.00;;;;;;;;;;4954510;28;20671;-72
2022/10/07 10:54:42;;;;;;;0.00;0.00;;;19.60;99.90;;;;;;4964732;28;20220;-72
2022/10/07 10:57:15;;;;;;;0.00;0.00;;;;;;;;;;4948979;28;20229;-72
2022/10/07 10:59:51;;;;;;;0.00;0.00;;;;;;;;;;4967759;28;20210;-72
2022/10/07 11:02:28;;;;;;;0.00;0.00;;;;;;;;;;4954611;28;20204;-72
2022/10/07 11:04:58;;;;;;;0.00;0.00;;;;;;;;;;4952572;28;20205;-72
2022/10/07 11:07:28;;;;;;;0.00;0.00;;;;;;;;;;4967872;28;20218;-72
2022/10/07 11:09:59;;;;;;;0.00;0.00;;;;;;;;;;4956246;28;20206;-72
2022/10/07 11:12:29;;;;;;;0.00;0.00;;;;;;;;;;4966640;28;20565;-72
2022/10/07 11:14:58;;;;;;;0.00;0.00;;;;;;;;;;4953156;28;20218;-72
2022/10/07 11:17:30;;;;;;;0.00;0.00;;;;;;;;;;4949905;28;20694;-73
2022/10/07 11:20:03;;;;;;;0.00;0.00;;;;;;;;;;4969696;28;20592;-72
2022/10/07 11:22:33;;;;;;;0.00;0.00;;;;;;;;;;4950848;28;20202;-73
2022/10/07 11:25:07;;;;;;;0.00;0.00;;;;;;;;;;4969801;28;20723;-72
2022/10/07 11:27:35;;;;;;;0.00;0.00;;;;;;;;;;4954343;28;20223;-73
2022/10/07 11:30:07;;;;;;;0.00;0.00;;;;;;;;;;4968539;28;20253;-72
2022/10/07 11:32:38;;;;;;;0.00;0.00;;;;;;;;;;4949541;28;20213;-72
2022/10/07 11:35:16;;;;;;;0.00;0.00;;;;;;;;;;4952401;28;20202;-73
2022/10/07 11:37:45;;;;;;;0.00;0.00;;;;;;;;;;4958832;28;20227;-72
2022/10/07 11:40:15;;;;;;;0.00;0.00;;;;;;;;;;4951715;28;20676;-72
2022/10/07 11:42:44;;;;;;;0.00;0.00;;;;;;;;;;4952833;28;20209;-73
2022/10/07 11:45:16;;;;;;;0.00;0.00;;;;;;;;;;4966158;28;20554;-72
2022/10/07 11:47:46;;;;;;;0.00;0.00;;;;;;;;;;4966568;28;20233;-72
2022/10/07 11:50:16;;;;;;;0.00;0.00;;;;;;;;;;4951212;28;20212;-73
2022/10/07 11:52:45;;;;;;;0.00;0.00;;;;;;;;;;4951343;28;20289;-72
2022/10/07 11:55:20;;;;;;;0.00;0.00;;;;;;;;;;4956027;28;20202;-73
2022/10/07 11:57:53;;;;;;;0.00;0.00;;;;;;;;;;4965139;28;20309;-73
2022/10/07 12:00:25;;;;;;;0.00;0.00;;;;;;;;;;4967209;28;20207;-73
2022/10/07 12:02:53;;;;;;;0.00;0.00;;;;;;;;;;4955828;28;20688;-73
2022/10/07 12:05:39;;;;;;;0.00;0.00;;;;;;;;;;4958006;28;20198;-73
2022/10/07 12:08:24;;;;;;;0.00;0.00;;;;;;;;;;4956085;28;20232;-72
2022/10/07 12:10:53;;;;;;;0.00;0.00;;;;;;;;;;4969455;28;20213;-75
2022/10/07 12:13:38;;;;;;;0.00;0.00;;;;;;;;;;4954489;28;20203;-72
2022/10/07 12:16:24;;;;;;;0.00;0.00;;;;;;;;;;4976073;28;20238;-72
2022/10/07 12:19:14;;;;;;;0.00;0.00;;;;;;;;;;4971535;28;20218;-72
2022/10/07 12:21:58;;;;;;;0.00;0.00;;;;;;;;;;4968858;28;20594;-72
2022/10/07 12:24:26;;;;;;;0.00;0.00;;;;;;;;;;4956325;28;20257;-71
2022/10/07 12:26:54;;;;;;;0.00;0.00;;;;;;;;;;4956575;28;20301;-72
2022/10/07 12:29:36;;;;;;;0.00;0.00;;;;;;;;;;4962091;28;20303;-75
2022/10/07 12:32:04;;;;;;;0.00;0.00;;;;;;;;;;4956178;28;20216;-72
2022/10/07 12:34:42;;;;;;;0.00;0.00;;;;;;;;;;4953167;28;20201;-73
2022/10/07 12:37:24;;;;;;;0.00;0.00;;;;;;;;;;4953441;28;20304;-73
2022/10/07 12:39:52;;;;;;;0.00;0.00;;;;;;;;;;4927006;28;20214;-72
2022/10/07 12:42:20;;;;;;;0.00;0.00;;;;;;;;;;4953043;28;20209;-72
2022/10/07 12:44:51;;;;;;;0.00;0.00;;;;;;;;;;4963190;28;20828;-74
2022/10/07 12:47:21;;;;;;;0.00;0.00;;;;;;;;;;4953036;28;20226;-73
2022/10/07 12:49:50;;;;;;;0.00;0.00;;;;;;;;;;4972801;28;20275;-72
2022/10/07 12:52:21;;;;;;;0.00;0.00;;;;;;;;;;4969204;28;20225;-72
2022/10/07 12:54:52;;;;;;;0.00;0.00;;;;;;;;;;4956286;28;20232;-72
2022/10/07 12:57:21;;;;;;;0.00;0.00;;;;;;;;;;4956036;28;20225;-72
2022/10/07 13:00:00;;;;;;;0.00;0.00;;;;;;;;;;4954990;28;20198;-72
2022/10/07 13:02:47;;;;;;;0.00;0.00;;;;;;;;;;4971520;28;20202;-72
2022/10/07 13:05:27;;;;;;;0.00;0.00;;;;;;;;;;4968270;28;20199;-72
2022/10/07 13:08:07;;;;;;;0.00;0.00;;;;;;;;;;4952652;28;20224;-72
2022/10/07 13:10:42;;;;;;;0.00;0.00;;;;;;;;;;4967033;28;20694;-72
2022/10/07 13:13:12;;;;;;;0.00;0.00;;;;;;;;;;4956037;28;20213;-72
2022/10/07 13:15:45;;;;;;;0.00;0.00;;;;;;;;;;4968694;28;20198;-72
2022/10/07 13:18:17;;;;;;;0.00;0.00;;;;;;;;;;4959093;28;20295;-72
2022/10/07 13:20:54;;;;;;;0.00;0.00;;;;;;;;;;4950707;28;20203;-73
2022/10/07 13:23:22;;;;;;;0.00;0.00;;;;;;;;;;4954093;28;20206;-72
2022/10/07 13:25:52;;;;;;;0.00;0.00;;;;;;;;;;4968643;28;20604;-72
2022/10/07 13:28:21;;;;;;;0.00;0.00;;;;;;;;;;4955613;28;20222;-72
2022/10/07 13:30:51;;;;;;;0.00;0.00;;;;;;;;;;4959646;28;20202;-72
2022/10/07 13:33:26;;;;;;;0.00;0.00;;;;;;;;;;4969701;28;20206;-72
2022/10/07 13:36:06;;;;;;;0.00;0.00;;;;;;;;;;4967005;28;20217;-72
2022/10/07 13:38:34;;;;;;;0.00;0.00;;;;;;;;;;4967238;28;20234;-74
2022/10/07 13:41:03;;;;;;;0.00;0.00;;;;;;;;;;4952727;28;20195;-73
2022/10/07 13:43:32;;;;;;;0.00;0.00;;;;;;;;;;4969694;28;20202;-73
2022/10/07 13:46:02;;;;;;;0.00;0.00;;;;;;;;;;4953152;28;20230;-72
2022/10/07 13:48:34;;;;;;;0.00;0.00;;;;;;;;;;4966900;28;20229;-72
2022/10/07 13:51:02;;;;;;;0.00;0.00;;;;;;;;;;4956202;28;20689;-71
2022/10/07 13:53:31;;;;;;;0.00;0.00;;;;;;;;;;4970061;28;20230;-71
2022/10/07 13:56:05;;;;;;;0.00;0.00;;;;;;;;;;4951566;28;20202;-69
2022/10/07 13:58:32;;;;;;;0.00;0.00;;;;;;;;;;4955236;28;20225;-68
2022/10/07 14:01:03;;;;;;;0.00;0.00;;;;;;;;;;4953062;28;20198;-69
2022/10/07 14:03:31;;;;;;;0.00;0.00;;;;;;;;;;4958050;28;20203;-68
2022/10/07 14:05:58;;;;;;;0.00;0.00;;;;;;;;;;4958633;28;20743;-69
2022/10/07 14:08:26;;;;;;;0.00;0.00;;;;;;;;;;4951938;28;20237;-69
2022/10/07 14:10:56;;;;;;;0.00;0.00;;;;;;;;;;4969134;28;20242;-69
2022/10/07 14:13:27;;;;;;;0.00;0.00;;;;;;;;;;4966476;28;20203;-69
2022/10/07 14:15:56;;;;;;;0.00;0.00;;;;;;;;;;4951636;28;20198;-69
2022/10/07 14:18:26;;;;;;;0.00;0.00;;;;;;;;;;4953224;28;20211;-68
2022/10/07 14:20:56;;;;;;;0.00;0.00;;;;;;;;;;4971126;28;20219;-69
2022/10/07 14:23:27;;;;;;;0.00;0.00;;;;;;;;;;4970261;28;20297;-69
2022/10/07 14:25:56;;;;;;;0.00;0.00;;;;;;;;;;4967526;28;20558;-69
2022/10/07 14:28:30;;;;;;;0.00;0.00;;;;;;;;;;4951893;28;20218;-69
2022/10/07 14:37:03;;;;;;;0.00;0.00;;;;;;;;;;4952888;28;20440;-70
2022/10/07 14:39:32;;;;;;;0.00;0.00;;;;;;;;;;4966632;28;20217;-70
2022/10/07 14:42:00;;;;;;;0.00;0.00;;;;;;;;;;4952773;28;20218;-70
2022/10/07 14:44:28;;;;;;;0.00;0.00;;;;;;;;;;4951952;28;20261;-69
2022/10/07 14:47:03;;;;;;;0.00;0.00;;;;;;;;;;4953168;28;20233;-69
2022/10/07 14:49:32;;;;;;;0.00;0.00;;;;;;;;;;4967705;28;20229;-70
2022/10/07 14:52:00;;;;;;;0.00;0.00;;;;;;;;;;4959253;28;20225;-69
2022/10/07 14:54:28;;;;;;;0.00;0.00;;;;;;;;;;4955719;28;20214;-70
2022/10/07 14:56:56;;;;;;;0.00;0.00;;;;;;;;;;4949256;28;20715;-70
2022/10/07 14:59:23;;;;;;;0.00;0.00;;;;;;;;;;4967758;28;20289;-69
2022/10/07 15:01:51;;;;;;;0.00;0.00;;;;;;;;;;4950116;28;20226;-69
2022/10/07 15:04:18;;;;;;;0.00;0.00;;;;;;;;;;4953089;28;20194;-69
2022/10/07 15:06:47;;;;;;;0.00;0.00;;;;;;;;;;4957491;28;20271;-69
2022/10/07 15:09:17;;;;;;;0.00;0.00;;;;;;;;;;4964683;28;20347;-70
2022/10/07 15:11:44;;;;;;;0.00;0.00;;;;;;;;;;4968255;28;20274;-69